createdAt,value
2022-10-22T00:00:31.490Z,281
2022-10-22T00:02:37.085Z,281
2022-10-22T00:04:42.840Z,281
2022-10-22T00:06:49.361Z,281
2022-10-22T00:08:55.024Z,281
2022-10-22T00:11:00.519Z,281
2022-10-22T00:13:05.554Z,281
2022-10-22T00:15:10.808Z,281
2022-10-22T00:17:16.471Z,281
2022-10-22T00:19:21.829Z,281
2022-10-22T00:21:27.093Z,281
2022-10-22T00:23:32.269Z,281
2022-10-22T00:25:40.700Z,281
2022-10-22T00:27:46.151Z,281
2022-10-22T00:29:51.417Z,281
2022-10-22T00:31:57.204Z,281
2022-10-22T00:34:02.424Z,281
2022-10-22T00:36:07.677Z,281
2022-10-22T00:38:13.068Z,281
2022-10-22T00:40:18.340Z,281
2022-10-22T00:42:23.288Z,281
2022-10-22T00:44:28.561Z,281
2022-10-22T00:46:33.532Z,280
2022-10-22T00:48:38.807Z,280
2022-10-22T00:50:43.683Z,280
2022-10-22T00:52:48.900Z,280
2022-10-22T00:54:53.958Z,280
2022-10-22T00:56:59.024Z,280
2022-10-22T00:59:04.650Z,280
2022-10-22T01:01:10.481Z,279
2022-10-22T01:03:15.810Z,279
2022-10-22T01:05:21.739Z,270
2022-10-22T01:07:27.182Z,270
2022-10-22T01:09:32.583Z,264
2022-10-22T01:11:37.705Z,264
2022-10-22T01:13:42.653Z,264
2022-10-22T01:15:48.821Z,264
2022-10-22T01:17:53.907Z,264
2022-10-22T01:19:59.083Z,260
2022-10-22T01:22:04.185Z,267
2022-10-22T01:24:09.243Z,267
2022-10-22T01:26:14.614Z,267
2022-10-22T01:28:20.258Z,268
2022-10-22T01:30:25.307Z,268
2022-10-22T01:32:30.486Z,268
2022-10-22T01:34:35.867Z,268
2022-10-22T01:36:41.233Z,268
2022-10-22T01:38:46.329Z,268
2022-10-22T01:40:51.706Z,268
2022-10-22T01:42:57.139Z,268
2022-10-22T01:45:02.115Z,268
2022-10-22T01:47:07.383Z,258
2022-10-22T01:49:12.936Z,264
2022-10-22T01:51:18.154Z,254
2022-10-22T01:53:23.036Z,254
2022-10-22T01:55:28.509Z,261
2022-10-22T01:57:33.719Z,267
2022-10-22T01:59:39.205Z,267
2022-10-22T02:01:44.410Z,267
2022-10-22T02:03:49.994Z,267
2022-10-22T02:05:55.531Z,266
2022-10-22T02:08:00.806Z,262
2022-10-22T02:10:05.930Z,268
2022-10-22T02:12:11.621Z,256
2022-10-22T02:14:17.124Z,264
2022-10-22T02:16:22.343Z,256
2022-10-22T02:18:27.355Z,261
2022-10-22T02:20:32.510Z,261
2022-10-22T02:22:38.318Z,259
2022-10-22T02:24:44.294Z,259
2022-10-22T02:26:49.992Z,259
2022-10-22T02:28:55.836Z,259
2022-10-22T02:31:02.111Z,261
2022-10-22T02:33:07.287Z,273
2022-10-22T02:35:12.925Z,271
2022-10-22T02:37:18.182Z,271
2022-10-22T02:39:23.392Z,270
2022-10-22T02:41:28.553Z,259
2022-10-22T02:43:34.454Z,257
2022-10-22T02:45:40.392Z,257
2022-10-22T02:47:46.044Z,270
2022-10-22T02:49:51.461Z,270
2022-10-22T02:51:56.637Z,270
2022-10-22T02:54:02.499Z,264
2022-10-22T02:56:07.614Z,267
2022-10-22T02:58:12.899Z,267
2022-10-22T03:00:18.567Z,267
2022-10-22T03:02:23.634Z,267
2022-10-22T03:04:28.804Z,267
2022-10-22T03:06:33.923Z,267
2022-10-22T03:08:39.186Z,267
2022-10-22T03:10:44.472Z,267
2022-10-22T03:12:49.968Z,268
2022-10-22T03:14:55.444Z,267
2022-10-22T03:17:00.821Z,267
2022-10-22T03:19:06.243Z,267
2022-10-22T03:21:11.481Z,268
2022-10-22T03:23:16.498Z,267
2022-10-22T03:25:21.528Z,267
2022-10-22T03:27:26.653Z,267
2022-10-22T03:29:31.846Z,267
2022-10-22T03:31:37.497Z,267
2022-10-22T03:33:42.657Z,267
2022-10-22T03:35:47.560Z,267
2022-10-22T03:37:53.068Z,267
2022-10-22T03:39:58.177Z,267
2022-10-22T03:42:03.433Z,267
2022-10-22T03:44:08.498Z,267
2022-10-22T03:46:13.743Z,267
2022-10-22T03:48:18.944Z,267
2022-10-22T03:50:24.191Z,267
2022-10-22T03:52:29.744Z,267
2022-10-22T03:54:35.068Z,267
2022-10-22T03:56:40.246Z,267
2022-10-22T03:58:45.321Z,267
2022-10-22T04:00:50.525Z,267
2022-10-22T04:02:55.841Z,267
2022-10-22T04:05:01.430Z,267
2022-10-22T04:07:06.680Z,267
2022-10-22T04:09:11.973Z,267
2022-10-22T04:11:17.153Z,267
2022-10-22T04:13:22.720Z,267
2022-10-22T04:15:28.062Z,267
2022-10-22T04:17:33.244Z,267
2022-10-22T04:19:38.653Z,267
2022-10-22T04:21:43.939Z,267
2022-10-22T04:23:48.909Z,267
2022-10-22T04:25:54.091Z,267
2022-10-22T04:27:59.567Z,267
2022-10-22T04:30:05.073Z,268
2022-10-22T04:32:09.995Z,270
2022-10-22T04:34:15.576Z,268
2022-10-22T04:36:21.051Z,268
2022-10-22T04:38:26.353Z,257
2022-10-22T04:40:31.346Z,261
2022-10-22T04:42:36.825Z,261
2022-10-22T04:44:41.834Z,261
2022-10-22T04:46:46.891Z,259
2022-10-22T04:48:51.884Z,261
2022-10-22T04:50:56.936Z,261
2022-10-22T04:53:02.128Z,259
2022-10-22T04:55:07.566Z,259
2022-10-22T04:57:12.765Z,268
2022-10-22T04:59:18.331Z,272
2022-10-22T05:01:24.430Z,272
2022-10-22T05:03:30.473Z,273
2022-10-22T05:05:35.873Z,270
2022-10-22T05:07:42.607Z,273
2022-10-22T05:09:48.747Z,271
2022-10-22T05:11:54.017Z,272
2022-10-22T05:13:59.519Z,270
2022-10-22T05:16:05.701Z,270
2022-10-22T05:18:11.061Z,271
2022-10-22T05:20:16.255Z,270
2022-10-22T05:22:21.483Z,270
2022-10-22T05:24:27.295Z,270
2022-10-22T05:26:32.502Z,270
2022-10-22T05:28:37.700Z,270
2022-10-22T05:30:43.068Z,270
2022-10-22T05:32:49.272Z,270
2022-10-22T05:34:54.319Z,270
2022-10-22T05:36:59.522Z,270
2022-10-22T05:39:04.994Z,270
2022-10-22T05:41:10.431Z,270
2022-10-22T05:43:16.124Z,268
2022-10-22T05:45:21.589Z,269
2022-10-22T05:47:26.863Z,270
2022-10-22T05:49:32.472Z,269
2022-10-22T05:51:37.706Z,269
2022-10-22T05:53:43.628Z,269
2022-10-22T05:55:49.729Z,268
2022-10-22T05:57:55.101Z,269
2022-10-22T06:00:00.221Z,269
2022-10-22T06:02:05.676Z,269
2022-10-22T06:04:11.430Z,269
2022-10-22T06:06:17.801Z,269
2022-10-22T06:08:23.576Z,270
2022-10-22T06:10:29.800Z,268
2022-10-22T06:12:36.008Z,268
2022-10-22T06:14:42.066Z,268
2022-10-22T06:16:47.543Z,268
2022-10-22T06:18:53.673Z,268
2022-10-22T06:20:59.424Z,268
2022-10-22T06:23:05.431Z,268
2022-10-22T06:25:11.359Z,268
2022-10-22T06:27:17.728Z,268
2022-10-22T06:29:24.120Z,268
2022-10-22T06:31:30.363Z,268
2022-10-22T06:33:35.920Z,266
2022-10-22T06:35:42.285Z,268
2022-10-22T06:37:48.105Z,269
2022-10-22T06:39:53.898Z,269
2022-10-22T06:42:00.394Z,268
2022-10-22T06:44:06.551Z,268
2022-10-22T06:46:18.999Z,268
2022-10-22T06:48:26.713Z,268
2022-10-22T06:50:32.778Z,268
2022-10-22T06:52:38.697Z,268
2022-10-22T06:54:45.121Z,268
2022-10-22T06:56:51.731Z,268
2022-10-22T06:58:58.194Z,268
2022-10-22T07:01:04.686Z,268
2022-10-22T07:03:10.784Z,268
2022-10-22T07:05:16.851Z,268
2022-10-22T07:07:23.253Z,268
2022-10-22T07:09:29.511Z,268
2022-10-22T07:11:35.635Z,267
2022-10-22T07:13:41.760Z,266
2022-10-22T07:15:48.043Z,267
2022-10-22T07:17:54.245Z,265
2022-10-22T07:20:00.337Z,266
2022-10-22T07:22:06.597Z,268
2022-10-22T07:24:12.879Z,273
2022-10-22T07:26:19.010Z,272
2022-10-22T07:28:25.265Z,272
2022-10-22T07:30:31.729Z,272
2022-10-22T07:32:38.023Z,273
2022-10-22T07:34:46.640Z,273
2022-10-22T07:36:52.856Z,273
2022-10-22T07:38:59.358Z,273
2022-10-22T07:41:05.210Z,273
2022-10-22T07:43:11.945Z,273
2022-10-22T07:45:18.325Z,273
2022-10-22T07:47:24.796Z,273
2022-10-22T07:49:31.214Z,273
2022-10-22T07:51:37.598Z,273
2022-10-22T07:53:43.952Z,271
2022-10-22T07:55:50.609Z,272
2022-10-22T07:57:56.787Z,267
2022-10-22T08:00:03.144Z,268
2022-10-22T08:02:09.231Z,268
2022-10-22T08:04:15.190Z,265
2022-10-22T08:06:21.600Z,265
2022-10-22T08:08:33.150Z,267
2022-10-22T08:10:39.540Z,265
2022-10-22T08:12:46.987Z,262
2022-10-22T08:14:53.433Z,266
2022-10-22T08:16:59.692Z,266
2022-10-22T08:19:05.945Z,266
2022-10-22T08:21:12.243Z,266
2022-10-22T08:23:18.837Z,266
2022-10-22T08:25:32.021Z,267
2022-10-22T08:27:38.850Z,267
2022-10-22T08:29:46.225Z,266
2022-10-22T08:31:52.537Z,264
2022-10-22T08:33:59.085Z,264
2022-10-22T08:36:05.496Z,266
2022-10-22T08:38:11.992Z,265
2022-10-22T08:40:18.121Z,266
2022-10-22T08:42:24.528Z,266
2022-10-22T08:44:31.381Z,265
2022-10-22T08:46:37.761Z,266
2022-10-22T08:48:43.927Z,266
2022-10-22T08:50:50.543Z,266
2022-10-22T08:52:56.784Z,266
2022-10-22T08:55:02.889Z,265
2022-10-22T08:57:09.107Z,266
2022-10-22T08:59:15.869Z,266
2022-10-22T09:01:22.038Z,266
2022-10-22T09:03:28.921Z,266
2022-10-22T09:05:36.934Z,266
2022-10-22T09:07:44.178Z,266
2022-10-22T09:09:50.616Z,266
2022-10-22T09:11:56.921Z,259
2022-10-22T09:14:03.383Z,261
2022-10-22T09:16:09.867Z,256
2022-10-22T09:18:16.038Z,259
2022-10-22T09:20:22.583Z,261
2022-10-22T09:22:29.724Z,257
2022-10-22T09:24:36.507Z,257
2022-10-22T09:26:43.575Z,273
2022-10-22T09:28:49.876Z,273
2022-10-22T09:30:56.297Z,273
2022-10-22T09:33:02.800Z,273
2022-10-22T09:35:08.869Z,273
2022-10-22T09:37:16.047Z,273
2022-10-22T09:39:22.489Z,273
2022-10-22T09:41:28.823Z,273
2022-10-22T09:43:35.510Z,272
2022-10-22T09:45:42.200Z,272
2022-10-22T09:48:04.743Z,273
2022-10-22T09:50:11.055Z,273
2022-10-22T09:52:17.098Z,276
2022-10-22T09:54:23.404Z,276
2022-10-22T09:56:29.643Z,276
2022-10-22T09:58:35.943Z,276
2022-10-22T10:00:42.310Z,276
2022-10-22T10:02:48.793Z,276
2022-10-22T10:04:55.301Z,276
2022-10-22T10:07:01.597Z,276
2022-10-22T10:09:08.081Z,274
2022-10-22T10:11:14.808Z,274
2022-10-22T10:13:20.974Z,276
2022-10-22T10:15:27.868Z,276
2022-10-22T10:17:34.186Z,274
2022-10-22T10:19:41.307Z,273
2022-10-22T10:21:47.721Z,273
2022-10-22T10:23:54.208Z,272
2022-10-22T10:26:00.326Z,272
2022-10-22T10:28:06.437Z,272
2022-10-22T10:30:13.019Z,272
2022-10-22T10:32:26.160Z,273
2022-10-22T10:34:32.597Z,273
2022-10-22T10:36:38.708Z,273
2022-10-22T10:38:45.234Z,272
2022-10-22T10:40:52.039Z,268
2022-10-22T10:42:58.341Z,268
2022-10-22T10:45:04.323Z,267
2022-10-22T10:47:10.926Z,268
2022-10-22T10:49:17.718Z,268
2022-10-22T10:51:24.337Z,267
2022-10-22T10:53:30.587Z,267
2022-10-22T10:55:36.955Z,268
2022-10-22T10:57:44.545Z,268
2022-10-22T10:59:50.795Z,268
2022-10-22T11:01:57.470Z,268
2022-10-22T11:04:03.920Z,268
2022-10-22T11:06:10.010Z,268
2022-10-22T11:08:18.247Z,268
2022-10-22T11:10:24.822Z,268
2022-10-22T11:12:31.498Z,268
2022-10-22T11:14:37.880Z,268
2022-10-22T11:16:43.825Z,268
2022-10-22T11:18:50.055Z,273
2022-10-22T11:20:56.463Z,273
2022-10-22T11:23:23.881Z,273
2022-10-22T11:25:32.207Z,273
2022-10-22T11:27:38.969Z,274
2022-10-22T11:29:46.048Z,273
2022-10-22T11:31:52.201Z,273
2022-10-22T11:34:34.965Z,272
2022-10-22T11:36:41.205Z,272
2022-10-22T11:38:47.929Z,272
2022-10-22T11:40:54.240Z,271
2022-10-22T11:43:00.830Z,272
2022-10-22T11:45:07.289Z,272
2022-10-22T11:47:13.793Z,272
2022-10-22T11:49:20.032Z,272
2022-10-22T11:51:26.085Z,272
2022-10-22T11:53:32.494Z,272
2022-10-22T11:55:38.758Z,267
2022-10-22T11:57:45.888Z,267
2022-10-22T11:59:52.311Z,267
2022-10-22T12:01:58.806Z,273
2022-10-22T12:04:04.989Z,272
2022-10-22T12:06:11.248Z,273
2022-10-22T12:08:18.719Z,272
2022-10-22T12:10:24.964Z,272
2022-10-22T12:12:31.285Z,272
2022-10-22T12:14:37.667Z,272
2022-10-22T12:17:00.593Z,273
2022-10-22T12:19:06.686Z,267
2022-10-22T12:21:13.051Z,270
2022-10-22T12:23:19.437Z,270
2022-10-22T12:25:25.395Z,270
2022-10-22T12:27:31.677Z,270
2022-10-22T12:29:38.121Z,267
2022-10-22T12:31:44.264Z,266
2022-10-22T12:33:50.592Z,266
2022-10-22T12:35:56.845Z,266
2022-10-22T12:38:03.038Z,267
2022-10-22T12:40:09.493Z,268
2022-10-22T12:42:16.100Z,267
2022-10-22T12:44:22.512Z,267
2022-10-22T12:46:29.291Z,267
2022-10-22T12:48:36.063Z,268
2022-10-22T12:50:41.942Z,268
2022-10-22T12:52:47.547Z,266
2022-10-22T12:54:53.561Z,268
2022-10-22T12:56:59.927Z,268
2022-10-22T12:59:06.515Z,262
2022-10-22T13:01:12.889Z,262
2022-10-22T13:03:19.155Z,262
2022-10-22T13:05:25.676Z,266
2022-10-22T13:07:31.876Z,270
2022-10-22T13:09:39.571Z,262
2022-10-22T13:11:46.111Z,270
2022-10-22T13:13:51.598Z,265
2022-10-22T13:15:57.501Z,273
2022-10-22T13:18:03.736Z,270
2022-10-22T13:20:09.909Z,272
2022-10-22T13:22:16.391Z,270
2022-10-22T13:24:22.715Z,272
2022-10-22T13:26:29.071Z,268
2022-10-22T13:28:35.319Z,267
2022-10-22T13:30:42.087Z,267
2022-10-22T13:32:51.333Z,267
2022-10-22T13:34:57.678Z,268
2022-10-22T13:37:03.803Z,265
2022-10-22T13:39:10.070Z,270
2022-10-22T13:41:16.195Z,267
2022-10-22T13:43:22.194Z,267
2022-10-22T13:45:28.346Z,267
2022-10-22T13:47:34.898Z,265
2022-10-22T13:49:41.792Z,266
2022-10-22T13:51:49.859Z,267
2022-10-22T13:53:56.315Z,267
2022-10-22T13:56:02.849Z,272
2022-10-22T13:58:09.501Z,270
2022-10-22T14:00:16.165Z,270
2022-10-22T14:02:22.443Z,269
2022-10-22T14:04:28.758Z,268
2022-10-22T14:08:43.036Z,269
2022-10-22T14:10:50.696Z,268
2022-10-22T14:12:56.978Z,268
2022-10-22T14:15:03.650Z,269
2022-10-22T14:17:10.288Z,268
2022-10-22T14:19:16.536Z,268
2022-10-22T14:21:23.036Z,268
2022-10-22T14:23:29.485Z,268
2022-10-22T14:25:35.732Z,268
2022-10-22T14:27:44.140Z,257
2022-10-22T14:29:53.209Z,257
2022-10-22T14:32:04.632Z,259
2022-10-22T14:34:11.656Z,253
2022-10-22T14:36:17.876Z,268
2022-10-22T14:38:24.437Z,272
2022-10-22T14:40:31.154Z,257
2022-10-22T14:42:37.597Z,262
2022-10-22T14:44:45.826Z,261
2022-10-22T14:46:53.138Z,261
2022-10-22T14:48:59.192Z,261
2022-10-22T14:51:06.218Z,262
2022-10-22T14:53:12.341Z,261
2022-10-22T14:55:19.035Z,261
2022-10-22T14:57:25.588Z,259
2022-10-22T14:59:32.394Z,259
2022-10-22T15:01:38.894Z,260
2022-10-22T15:03:45.462Z,260
2022-10-22T15:05:52.724Z,259
2022-10-22T15:08:00.346Z,260
2022-10-22T15:10:07.763Z,259
2022-10-22T15:12:14.454Z,256
2022-10-22T15:14:21.218Z,254
2022-10-22T15:16:28.747Z,254
2022-10-22T15:18:37.827Z,254
2022-10-22T15:20:43.879Z,254
2022-10-22T15:22:51.689Z,254
2022-10-22T15:24:59.194Z,254
2022-10-22T15:27:09.540Z,253
2022-10-22T15:29:18.731Z,255
2022-10-22T15:31:25.146Z,255
2022-10-22T15:33:31.549Z,256
2022-10-22T15:35:38.622Z,269
2022-10-22T15:37:44.921Z,270
2022-10-22T15:39:53.125Z,266
2022-10-22T15:42:00.303Z,267
2022-10-22T15:44:07.811Z,266
2022-10-22T15:46:14.343Z,266
2022-10-22T15:48:21.290Z,264
2022-10-22T15:50:28.183Z,262
2022-10-22T15:52:36.681Z,262
2022-10-22T15:54:44.360Z,262
2022-10-22T15:56:51.622Z,262
2022-10-22T15:58:59.182Z,271
2022-10-22T16:01:06.929Z,272
2022-10-22T16:03:15.000Z,273
2022-10-22T16:05:22.809Z,273
2022-10-22T16:07:30.140Z,273
2022-10-22T16:09:37.606Z,274
2022-10-22T16:11:44.313Z,273
2022-10-22T16:13:51.611Z,273
2022-10-22T16:15:59.234Z,253
2022-10-22T16:18:05.838Z,249
2022-10-22T16:20:14.748Z,256
2022-10-22T16:22:21.984Z,257
2022-10-22T16:24:28.759Z,256
2022-10-22T16:26:35.470Z,259
2022-10-22T16:28:43.593Z,262
2022-10-22T16:30:52.454Z,273
2022-10-22T16:33:02.488Z,273
2022-10-22T16:35:10.637Z,274
2022-10-22T16:37:17.938Z,267
2022-10-22T16:39:27.774Z,272
2022-10-22T16:41:39.558Z,273
2022-10-22T16:43:47.424Z,273
2022-10-22T16:45:55.520Z,262
2022-10-22T16:48:02.935Z,262
2022-10-22T16:50:10.980Z,262
2022-10-22T16:52:19.852Z,259
2022-10-22T16:54:26.363Z,270
2022-10-22T16:56:34.413Z,266
2022-10-22T16:58:42.519Z,274
2022-10-22T17:00:50.246Z,276
2022-10-22T17:03:01.205Z,267
2022-10-22T17:05:14.896Z,265
2022-10-22T17:07:25.789Z,264
2022-10-22T17:09:35.624Z,262
2022-10-22T17:11:46.894Z,268
2022-10-22T17:13:58.697Z,264
2022-10-22T17:16:09.140Z,268
2022-10-22T17:18:19.107Z,270
2022-10-22T17:20:40.602Z,270
2022-10-22T17:22:52.883Z,268
2022-10-22T17:25:00.703Z,270
2022-10-22T17:27:10.791Z,266
2022-10-22T17:29:21.505Z,267
2022-10-22T17:31:39.250Z,267
2022-10-22T17:33:49.173Z,266
2022-10-22T17:36:02.467Z,268
2022-10-22T17:38:11.084Z,266
2022-10-22T17:40:21.868Z,265
2022-10-22T17:42:33.005Z,257
2022-10-22T17:44:42.657Z,260
2022-10-22T17:46:54.705Z,261
2022-10-22T17:49:03.056Z,262
2022-10-22T17:51:15.853Z,256
2022-10-22T17:53:24.275Z,256
2022-10-22T17:55:36.079Z,268
2022-10-22T17:57:45.616Z,268
2022-10-22T17:59:55.735Z,268
2022-10-22T18:02:04.757Z,268
2022-10-22T18:04:15.628Z,268
2022-10-22T18:06:26.032Z,266
2022-10-22T18:08:37.570Z,265
2022-10-22T18:10:48.112Z,272
2022-10-22T18:12:58.836Z,262
2022-10-22T18:15:08.472Z,267
2022-10-22T18:17:19.227Z,266
2022-10-22T18:19:29.686Z,270
2022-10-22T18:21:57.832Z,270
2022-10-22T18:24:14.057Z,264
2022-10-22T18:26:30.675Z,257
2022-10-22T18:28:38.826Z,261
2022-10-22T18:30:49.103Z,261
2022-10-22T18:32:58.674Z,261
2022-10-22T18:35:09.714Z,262
2022-10-22T18:37:21.548Z,259
2022-10-22T18:39:32.270Z,258
2022-10-22T18:41:44.924Z,279
2022-10-22T18:43:57.184Z,279
2022-10-22T18:46:05.552Z,279
2022-10-22T18:48:25.369Z,277
2022-10-22T18:50:39.283Z,277
2022-10-22T18:52:53.338Z,276
2022-10-22T18:55:05.499Z,269
2022-10-22T18:57:16.937Z,270
2022-10-22T18:59:30.952Z,270
2022-10-22T19:01:47.672Z,270
2022-10-22T19:03:58.022Z,268
2022-10-22T19:06:12.677Z,272
2022-10-22T19:08:21.562Z,270
2022-10-22T19:10:34.017Z,269
2022-10-22T19:12:43.436Z,270
2022-10-22T19:14:52.646Z,270
2022-10-22T19:17:03.257Z,268
2022-10-22T19:19:13.237Z,267
2022-10-22T19:21:22.044Z,266
2022-10-22T19:23:35.091Z,264
2022-10-22T19:25:46.683Z,265
2022-10-22T19:27:56.127Z,266
2022-10-22T19:30:07.595Z,270
2022-10-22T19:32:16.031Z,268
2022-10-22T19:34:31.834Z,270
2022-10-22T19:36:43.246Z,267
2022-10-22T19:38:51.139Z,265
2022-10-22T19:41:04.121Z,262
2022-10-22T19:43:20.480Z,268
2022-10-22T19:45:30.702Z,272
2022-10-22T19:47:41.285Z,256
2022-10-22T19:49:53.431Z,267
2022-10-22T19:52:05.087Z,270
2022-10-22T19:54:14.958Z,277
2022-10-22T19:56:29.821Z,262
2022-10-22T19:58:39.778Z,264
2022-10-22T20:00:48.158Z,266
2022-10-22T20:02:59.655Z,270
2022-10-22T20:05:08.015Z,255
2022-10-22T20:07:17.487Z,268
2022-10-22T20:09:28.138Z,262
2022-10-22T20:11:35.293Z,270
2022-10-22T20:13:45.414Z,270
2022-10-22T20:15:59.088Z,264
2022-10-22T20:18:17.988Z,276
2022-10-22T20:20:29.756Z,273
2022-10-22T20:22:37.437Z,264
2022-10-22T20:24:45.528Z,266
2022-10-22T20:26:57.821Z,267
2022-10-22T20:29:09.230Z,270
2022-10-22T20:31:17.389Z,268
2022-10-22T20:33:27.797Z,269
2022-10-22T20:35:34.402Z,269
2022-10-22T20:37:44.064Z,269
2022-10-22T20:39:52.564Z,244
2022-10-22T20:42:00.511Z,253
2022-10-22T20:44:10.910Z,268
2022-10-22T20:46:19.088Z,267
2022-10-22T20:48:26.448Z,267
2022-10-22T20:50:37.486Z,268
2022-10-22T20:52:45.392Z,268
2022-10-22T20:54:53.349Z,261
2022-10-22T20:57:06.007Z,272
2022-10-22T20:59:14.985Z,274
2022-10-22T21:01:23.419Z,257
2022-10-22T21:03:34.614Z,272
2022-10-22T21:05:45.775Z,272
2022-10-22T21:07:56.474Z,270
2022-10-22T21:10:07.516Z,266
2022-10-22T21:12:15.900Z,270
2022-10-22T21:14:22.779Z,270
2022-10-22T21:16:29.079Z,270
2022-10-22T21:18:35.469Z,262
2022-10-22T21:20:42.068Z,268
2022-10-22T21:22:48.602Z,270
2022-10-22T21:24:54.758Z,268
2022-10-22T21:27:01.366Z,279
2022-10-22T21:29:08.439Z,281
2022-10-22T21:31:15.239Z,281
2022-10-22T21:33:23.762Z,277
2022-10-22T21:35:30.350Z,267
2022-10-22T21:37:37.762Z,277
2022-10-22T21:39:45.323Z,274
2022-10-22T21:41:53.338Z,274
2022-10-22T21:44:00.352Z,274
2022-10-22T21:46:10.953Z,274
2022-10-22T21:48:17.701Z,274
2022-10-22T21:50:23.786Z,274
2022-10-22T21:52:30.581Z,274
2022-10-22T21:54:38.091Z,274
2022-10-22T21:56:44.265Z,276
2022-10-22T21:58:51.191Z,268
2022-10-22T22:00:57.674Z,272
2022-10-22T22:03:06.328Z,268
2022-10-22T22:05:13.415Z,262
2022-10-22T22:07:20.451Z,273
2022-10-22T22:09:27.203Z,273
2022-10-22T22:11:33.470Z,273
2022-10-22T22:13:40.669Z,273
2022-10-22T22:15:47.716Z,273
2022-10-22T22:17:54.408Z,273
2022-10-22T22:20:00.522Z,272
2022-10-22T22:22:07.157Z,273
2022-10-22T22:24:13.667Z,274
2022-10-22T22:26:19.792Z,268
2022-10-22T22:28:32.029Z,268
2022-10-22T22:30:38.049Z,268
2022-10-22T22:32:45.546Z,268
2022-10-22T22:34:52.571Z,268
2022-10-22T22:36:58.804Z,267
2022-10-22T22:39:05.358Z,267
2022-10-22T22:41:12.525Z,267
2022-10-22T22:43:18.590Z,267
2022-10-22T22:45:25.539Z,267
2022-10-22T22:47:32.172Z,266
2022-10-22T22:49:39.768Z,266
2022-10-22T22:51:45.091Z,266
2022-10-22T22:53:51.194Z,266
2022-10-22T22:55:56.994Z,265
2022-10-22T22:58:03.380Z,265
2022-10-22T23:00:09.546Z,270
2022-10-22T23:02:15.695Z,268
2022-10-22T23:04:21.827Z,265
2022-10-22T23:06:28.003Z,270
2022-10-22T23:08:34.249Z,268
2022-10-22T23:10:39.470Z,268
2022-10-22T23:12:47.106Z,268
2022-10-22T23:14:53.286Z,268
2022-10-22T23:16:58.413Z,268
2022-10-22T23:19:03.648Z,264
2022-10-22T23:21:09.513Z,264
2022-10-22T23:23:15.168Z,264
2022-10-22T23:25:20.939Z,264
2022-10-22T23:27:26.608Z,264
2022-10-22T23:29:32.004Z,262
2022-10-22T23:31:38.347Z,262
2022-10-22T23:33:43.530Z,264
2022-10-22T23:35:48.850Z,264
2022-10-22T23:37:54.267Z,264
2022-10-22T23:39:59.687Z,264
2022-10-22T23:42:05.538Z,264
2022-10-22T23:44:11.416Z,264
2022-10-22T23:46:16.777Z,264
2022-10-22T23:48:22.370Z,264
2022-10-22T23:50:28.190Z,264
2022-10-22T23:52:33.705Z,264
2022-10-22T23:54:39.390Z,264
2022-10-22T23:56:44.640Z,264
2022-10-22T23:58:49.905Z,264
